sensor_id;sensor_type;location;lat;lon;timestamp;pressure;altitude;pressure_sealevel;temperature;humidity
36630;BME280;36256;42.154;23.002;2022-11-15T00:00:56;97802.69;;;3.81;99.96
36630;BME280;36256;42.154;23.002;2022-11-15T00:03:27;97808.22;;;3.74;100.00
36630;BME280;36256;42.154;23.002;2022-11-15T00:05:54;97801.50;;;3.61;100.00
36630;BME280;36256;42.154;23.002;2022-11-15T00:08:21;97808.25;;;3.67;100.00
36630;BME280;36256;42.154;23.002;2022-11-15T00:10:58;97813.78;;;3.74;100.00
36630;BME280;36256;42.154;23.002;2022-11-15T00:13:25;97809.81;;;3.75;100.00
36630;BME280;36256;42.154;23.002;2022-11-15T00:15:52;97811.41;;;3.76;100.00
36630;BME280;36256;42.154;23.002;2022-11-15T00:18:19;97803.50;;;3.78;100.00
36630;BME280;36256;42.154;23.002;2022-11-15T00:20:45;97804.66;;;3.77;100.00
36630;BME280;36256;42.154;23.002;2022-11-15T00:23:12;97797.53;;;3.72;100.00
36630;BME280;36256;42.154;23.002;2022-11-15T00:25:38;97805.84;;;3.72;100.00
36630;BME280;36256;42.154;23.002;2022-11-15T00:28:05;97815.38;;;3.75;100.00
36630;BME280;36256;42.154;23.002;2022-11-15T00:30:32;97809.81;;;3.75;100.00
36630;BME280;36256;42.154;23.002;2022-11-15T00:33:03;97812.19;;;3.73;100.00
36630;BME280;36256;42.154;23.002;2022-11-15T00:35:33;97810.59;;;3.68;100.00
36630;BME280;36256;42.154;23.002;2022-11-15T00:38:01;97813.00;;;3.63;100.00
36630;BME280;36256;42.154;23.002;2022-11-15T00:40:28;97817.75;;;3.52;100.00
36630;BME280;36256;42.154;23.002;2022-11-15T00:42:55;97808.59;;;3.41;100.00
36630;BME280;36256;42.154;23.002;2022-11-15T00:45:22;97806.63;;;3.45;100.00
36630;BME280;36256;42.154;23.002;2022-11-15T00:47:48;97805.03;;;3.37;100.00
36630;BME280;36256;42.154;23.002;2022-11-15T00:50:15;97803.88;;;3.38;100.00
36630;BME280;36256;42.154;23.002;2022-11-15T00:52:42;97803.88;;;3.38;100.00
36630;BME280;36256;42.154;23.002;2022-11-15T00:55:16;97804.25;;;3.40;100.00
36630;BME280;36256;42.154;23.002;2022-11-15T00:57:42;97806.63;;;3.31;100.00
36630;BME280;36256;42.154;23.002;2022-11-15T01:00:10;97808.19;;;3.17;100.00
36630;BME280;36256;42.154;23.002;2022-11-15T01:02:36;97815.31;;;3.18;100.00
36630;BME280;36256;42.154;23.002;2022-11-15T01:05:03;97794.72;;;3.16;100.00
36630;BME280;36256;42.154;23.002;2022-11-15T01:07:30;97799.09;;;3.24;100.00
36630;BME280;36256;42.154;23.002;2022-11-15T01:09:57;97796.72;;;3.23;100.00
36630;BME280;36256;42.154;23.002;2022-11-15T01:12:23;97801.06;;;3.24;100.00
36630;BME280;36256;42.154;23.002;2022-11-15T01:14:50;97803.44;;;3.14;100.00
36630;BME280;36256;42.154;23.002;2022-11-15T01:17:16;97799.06;;;3.10;100.00
36630;BME280;36256;42.154;23.002;2022-11-15T01:19:43;97801.84;;;3.13;100.00
36630;BME280;36256;42.154;23.002;2022-11-15T01:22:10;97801.84;;;3.21;100.00
36630;BME280;36256;42.154;23.002;2022-11-15T01:24:36;97804.22;;;3.26;100.00
36630;BME280;36256;42.154;23.002;2022-11-15T01:27:03;97808.19;;;3.32;100.00
36630;BME280;36256;42.154;23.002;2022-11-15T01:29:29;97803.44;;;3.29;100.00
36630;BME280;36256;42.154;23.002;2022-11-15T01:31:56;97805.81;;;3.30;100.00
36630;BME280;36256;42.154;23.002;2022-11-15T01:34:22;97803.06;;;3.34;100.00
36630;BME280;36256;42.154;23.002;2022-11-15T01:36:49;97801.47;;;3.33;100.00
36630;BME280;36256;42.154;23.002;2022-11-15T01:39:15;97806.63;;;3.31;100.00
36630;BME280;36256;42.154;23.002;2022-11-15T01:41:43;97803.44;;;3.25;100.00
36630;BME280;36256;42.154;23.002;2022-11-15T01:46:54;97808.97;;;3.14;100.00
36630;BME280;36256;42.154;23.002;2022-11-15T01:49:22;97809.75;;;3.11;100.00
36630;BME280;36256;42.154;23.002;2022-11-15T01:51:50;97804.22;;;3.08;100.00
36630;BME280;36256;42.154;23.002;2022-11-15T01:54:18;97799.44;;;3.01;100.00
36630;BME280;36256;42.154;23.002;2022-11-15T01:56:51;97805.78;;;3.09;100.00
36630;BME280;36256;42.154;23.002;2022-11-15T01:59:18;97804.97;;;3.08;100.00
36630;BME280;36256;42.154;23.002;2022-11-15T02:01:46;97811.28;;;2.98;100.00
36630;BME280;36256;42.154;23.002;2022-11-15T02:04:28;97810.88;;;2.86;100.00
36630;BME280;36256;42.154;23.002;2022-11-15T02:06:54;97806.53;;;2.85;100.00
36630;BME280;36256;42.154;23.002;2022-11-15T02:09:21;97802.56;;;2.89;100.00
36630;BME280;36256;42.154;23.002;2022-11-15T02:11:49;97804.16;;;2.90;100.00
36630;BME280;36256;42.154;23.002;2022-11-15T02:14:18;97797.81;;;2.86;100.00
36630;BME280;36256;42.154;23.002;2022-11-15T02:25:03;97789.53;;;2.97;100.00
36630;BME280;36256;42.154;23.002;2022-11-15T02:36:00;97803.00;;;3.02;100.00
36630;BME280;36256;42.154;23.002;2022-11-15T02:38:47;97801.00;;;3.02;100.00
36630;BME280;36256;42.154;23.002;2022-11-15T02:41:20;97799.44;;;3.01;100.00
36630;BME280;36256;42.154;23.002;2022-11-15T02:44:03;97804.94;;;2.91;100.00
36630;BME280;36256;42.154;23.002;2022-11-15T02:46:50;97800.53;;;2.79;100.00
36630;BME280;36256;42.154;23.002;2022-11-15T02:49:37;97789.84;;;2.74;100.00
36630;BME280;36256;42.154;23.002;2022-11-15T02:52:04;97795.38;;;2.67;100.00
36630;BME280;36256;42.154;23.002;2022-11-15T02:54:32;97800.91;;;2.64;100.00
36630;BME280;36256;42.154;23.002;2022-11-15T02:57:05;97792.94;;;2.55;100.00
36630;BME280;36256;42.154;23.002;2022-11-15T03:05:21;97800.47;;;2.58;100.00
36630;BME280;36256;42.154;23.002;2022-11-15T03:08:02;97793.75;;;2.59;100.00
36630;BME280;36256;42.154;23.002;2022-11-15T03:16:48;97789.78;;;2.53;100.00
36630;BME280;36256;42.154;23.002;2022-11-15T03:18:55;97796.13;;;2.61;100.00
36630;BME280;36256;42.154;23.002;2022-11-15T03:21:24;97797.72;;;2.65;100.00
36630;BME280;36256;42.154;23.002;2022-11-15T03:23:52;97794.16;;;2.68;100.00
36630;BME280;36256;42.154;23.002;2022-11-15T03:26:23;97791.78;;;2.60;100.00
36630;BME280;36256;42.154;23.002;2022-11-15T03:28:55;97803.25;;;2.58;100.00
36630;BME280;36256;42.154;23.002;2022-11-15T03:31:26;97800.09;;;2.60;100.00
36630;BME280;36256;42.154;23.002;2022-11-15T03:37:14;97793.81;;;2.73;100.00
36630;BME280;36256;42.154;23.002;2022-11-15T03:39:42;97793.00;;;2.73;100.00
36630;BME280;36256;42.154;23.002;2022-11-15T03:42:29;97791.41;;;2.68;100.00
36630;BME280;36256;42.154;23.002;2022-11-15T03:45:08;97783.88;;;2.65;100.00
36630;BME280;36256;42.154;23.002;2022-11-15T03:47:54;97787.41;;;2.62;100.00
36630;BME280;36256;42.154;23.002;2022-11-15T03:50:25;97775.13;;;2.56;100.00
36630;BME280;36256;42.154;23.002;2022-11-15T03:52:54;97773.16;;;2.60;100.00
36630;BME280;36256;42.154;23.002;2022-11-15T03:55:21;97765.25;;;2.62;100.00
36630;BME280;36256;42.154;23.002;2022-11-15T03:57:51;97768.06;;;2.66;100.00
36630;BME280;36256;42.154;23.002;2022-11-15T04:00:19;97766.06;;;2.66;100.00
36630;BME280;36256;42.154;23.002;2022-11-15T04:02:45;97761.31;;;2.63;100.00
36630;BME280;36256;42.154;23.002;2022-11-15T04:05:12;97753.38;;;2.55;100.00
36630;BME280;36256;42.154;23.002;2022-11-15T04:07:39;97768.03;;;2.62;100.00
36630;BME280;36256;42.154;23.002;2022-11-15T04:10:06;97758.94;;;2.62;100.00
36630;BME280;36256;42.154;23.002;2022-11-15T04:12:35;97766.88;;;2.70;100.00
36630;BME280;36256;42.154;23.002;2022-11-15T04:15:07;97761.34;;;2.70;100.00
36630;BME280;36256;42.154;23.002;2022-11-15T04:20:20;97755.69;;;2.42;100.00
36630;BME280;36256;42.154;23.002;2022-11-15T04:23:09;97751.31;;;2.41;100.00
36630;BME280;36256;42.154;23.002;2022-11-15T04:26:03;97748.50;;;2.27;100.00
36630;BME280;36256;42.154;23.002;2022-11-15T04:28:30;97752.88;;;2.28;100.00
36630;BME280;36256;42.154;23.002;2022-11-15T04:30:57;97742.97;;;2.30;100.00
36630;BME280;36256;42.154;23.002;2022-11-15T04:33:23;97746.94;;;2.33;100.00
36630;BME280;36256;42.154;23.002;2022-11-15T04:35:50;97750.94;;;2.39;100.00
36630;BME280;36256;42.154;23.002;2022-11-15T04:38:37;97747.75;;;2.30;100.00
36630;BME280;36256;42.154;23.002;2022-11-15T04:41:03;97750.91;;;2.35;100.00
36630;BME280;36256;42.154;23.002;2022-11-15T04:43:30;97754.09;;;2.41;100.00
36630;BME280;36256;42.154;23.002;2022-11-15T04:45:57;97741.44;;;2.40;100.00
36630;BME280;36256;42.154;23.002;2022-11-15T04:48:24;97743.03;;;2.41;100.00
36630;BME280;36256;42.154;23.002;2022-11-15T04:50:50;97742.25;;;2.48;100.00
36630;BME280;36256;42.154;23.002;2022-11-15T04:53:17;97746.63;;;2.52;100.00
36630;BME280;36256;42.154;23.002;2022-11-15T04:55:46;97736.75;;;2.55;100.00
36630;BME280;36256;42.154;23.002;2022-11-15T04:58:13;97739.13;;;2.56;100.00
36630;BME280;36256;42.154;23.002;2022-11-15T05:00:39;97741.13;;;2.59;100.00
36630;BME280;36256;42.154;23.002;2022-11-15T05:03:07;97739.91;;;2.53;100.00
36630;BME280;36256;42.154;23.002;2022-11-15T05:05:53;97746.19;;;2.43;100.00
36630;BME280;36256;42.154;23.002;2022-11-15T05:08:20;97743.00;;;2.34;100.00
36630;BME280;36256;42.154;23.002;2022-11-15T05:10:47;97737.06;;;2.32;100.00
36630;BME280;36256;42.154;23.002;2022-11-15T05:13:14;97737.41;;;2.23;100.00
36630;BME280;36256;42.154;23.002;2022-11-15T05:15:40;97740.91;;;2.10;100.00
36630;BME280;36256;42.154;23.002;2022-11-15T05:18:07;97740.03;;;1.95;100.00
36630;BME280;36256;42.154;23.002;2022-11-15T05:20:33;97734.91;;;1.94;100.00
36630;BME280;36256;42.154;23.002;2022-11-15T05:23:00;97730.09;;;1.84;100.00
36630;BME280;36256;42.154;23.002;2022-11-15T05:25:26;97725.69;;;1.76;100.00
36630;BME280;36256;42.154;23.002;2022-11-15T05:27:53;97739.50;;;1.76;100.00
36630;BME280;36256;42.154;23.002;2022-11-15T05:30:20;97745.53;;;1.88;100.00
36630;BME280;36256;42.154;23.002;2022-11-15T05:32:47;97744.81;;;2.02;100.00
36630;BME280;36256;42.154;23.002;2022-11-15T05:35:30;97750.00;;;2.07;100.00
36630;BME280;36256;42.154;23.002;2022-11-15T05:37:58;97742.94;;;2.20;100.00
36630;BME280;36256;42.154;23.002;2022-11-15T05:40:26;97734.25;;;2.25;100.00
36630;BME280;36256;42.154;23.002;2022-11-15T05:42:53;97753.69;;;2.39;100.00
36630;BME280;36256;42.154;23.002;2022-11-15T05:45:20;97748.59;;;2.48;100.00
36630;BME280;36256;42.154;23.002;2022-11-15T05:47:54;97743.44;;;2.50;100.00
36630;BME280;36256;42.154;23.002;2022-11-15T05:50:23;97748.63;;;2.55;100.00
36630;BME280;36256;42.154;23.002;2022-11-15T05:52:50;97751.41;;;2.62;100.00
36630;BME280;36256;42.154;23.002;2022-11-15T05:55:17;97737.16;;;2.60;100.00
36630;BME280;36256;42.154;23.002;2022-11-15T05:57:44;97746.69;;;2.73;100.00
36630;BME280;36256;42.154;23.002;2022-11-15T06:00:11;97752.66;;;2.82;100.00
36630;BME280;36256;42.154;23.002;2022-11-15T06:02:38;97759.00;;;2.86;100.00
36630;BME280;36256;42.154;23.002;2022-11-15T06:05:05;97750.69;;;2.90;100.00
36630;BME280;36256;42.154;23.002;2022-11-15T06:07:31;97747.53;;;2.84;100.00
36630;BME280;36256;42.154;23.002;2022-11-15T06:09:58;97746.31;;;2.82;100.00
36630;BME280;36256;42.154;23.002;2022-11-15T06:12:25;97745.53;;;2.81;100.00
36630;BME280;36256;42.154;23.002;2022-11-15T06:14:51;97745.53;;;2.81;100.00
36630;BME280;36256;42.154;23.002;2022-11-15T06:17:18;97748.69;;;2.83;100.00
36630;BME280;36256;42.154;23.002;2022-11-15T06:19:44;97745.91;;;2.80;100.00
36630;BME280;36256;42.154;23.002;2022-11-15T06:22:11;97751.47;;;2.83;100.00
36630;BME280;36256;42.154;23.002;2022-11-15T06:24:37;97751.06;;;2.81;100.00
36630;BME280;36256;42.154;23.002;2022-11-15T06:27:04;97757.00;;;2.80;100.00
36630;BME280;36256;42.154;23.002;2022-11-15T06:29:31;97749.50;;;2.80;100.00
36630;BME280;36256;42.154;23.002;2022-11-15T06:31:57;97750.69;;;2.86;100.00
36630;BME280;36256;42.154;23.002;2022-11-15T06:34:24;97758.22;;;2.93;100.00
36630;BME280;36256;42.154;23.002;2022-11-15T06:36:50;97759.81;;;2.97;100.00
36630;BME280;36256;42.154;23.002;2022-11-15T06:39:17;97761.44;;;3.05;100.00
36630;BME280;36256;42.154;23.002;2022-11-15T06:41:43;97762.22;;;3.13;100.00
36630;BME280;36256;42.154;23.002;2022-11-15T06:44:10;97765.00;;;3.24;100.00
36630;BME280;36256;42.154;23.002;2022-11-15T06:46:36;97765.41;;;3.26;100.00
36630;BME280;36256;42.154;23.002;2022-11-15T06:49:03;97761.88;;;3.36;100.00
36630;BME280;36256;42.154;23.002;2022-11-15T06:51:35;97762.25;;;3.52;100.00
36630;BME280;36256;42.154;23.002;2022-11-15T06:54:01;97752.72;;;3.53;100.00
36630;BME280;36256;42.154;23.002;2022-11-15T06:56:28;97760.66;;;3.65;100.00
36630;BME280;36256;42.154;23.002;2022-11-15T06:58:55;97764.63;;;3.71;100.00
36630;BME280;36256;42.154;23.002;2022-11-15T07:01:22;97759.88;;;3.75;100.00
36630;BME280;36256;42.154;23.002;2022-11-15T07:03:48;97759.06;;;3.78;100.00
36630;BME280;36256;42.154;23.002;2022-11-15T07:06:15;97753.91;;;3.80;100.00
36630;BME280;36256;42.154;23.002;2022-11-15T07:08:42;97760.63;;;3.96;100.00
36630;BME280;36256;42.154;23.002;2022-11-15T07:11:09;97759.03;;;3.99;100.00
36630;BME280;36256;42.154;23.002;2022-11-15T07:13:36;97759.81;;;4.07;100.00
36630;BME280;36256;42.154;23.002;2022-11-15T07:16:05;97760.59;;;4.18;100.00
36630;BME280;36256;42.154;23.002;2022-11-15T07:18:36;97758.19;;;4.20;100.00
36630;BME280;36256;42.154;23.002;2022-11-15T07:21:04;97759.00;;;4.17;100.00
36630;BME280;36256;42.154;23.002;2022-11-15T07:23:31;97756.59;;;4.22;100.00
36630;BME280;36256;42.154;23.002;2022-11-15T07:25:59;97756.56;;;4.36;100.00
36630;BME280;36256;42.154;23.002;2022-11-15T07:28:26;97749.38;;;4.46;100.00
36630;BME280;36256;42.154;23.002;2022-11-15T07:30:54;97739.81;;;4.54;100.00
36630;BME280;36256;42.154;23.002;2022-11-15T07:33:21;97745.72;;;4.63;100.00
36630;BME280;36256;42.154;23.002;2022-11-15T07:35:47;97749.59;;;4.83;100.00
36630;BME280;36256;42.154;23.002;2022-11-15T07:38:17;97738.84;;;4.89;100.00
36630;BME280;36256;42.154;23.002;2022-11-15T07:40:47;97741.88;;;5.12;100.00
36630;BME280;36256;42.154;23.002;2022-11-15T07:43:13;97747.34;;;5.26;100.00
36630;BME280;36256;42.154;23.002;2022-11-15T07:45:44;97743.66;;;5.39;100.00
36630;BME280;36256;42.154;23.002;2022-11-15T07:48:11;97741.59;;;5.47;100.00
36630;BME280;36256;42.154;23.002;2022-11-15T07:50:40;97746.63;;;5.66;100.00
36630;BME280;36256;42.154;23.002;2022-11-15T07:53:09;97750.94;;;5.74;100.00
36630;BME280;36256;42.154;23.002;2022-11-15T07:55:36;97749.78;;;5.68;100.00
36630;BME280;36256;42.154;23.002;2022-11-15T07:58:04;97751.00;;;5.67;100.00
36630;BME280;36256;42.154;23.002;2022-11-15T08:00:32;97751.78;;;5.68;100.00
36630;BME280;36256;42.154;23.002;2022-11-15T08:03:10;97748.25;;;5.60;100.00
36630;BME280;36256;42.154;23.002;2022-11-15T08:05:38;97755.06;;;5.59;100.00
36630;BME280;36256;42.154;23.002;2022-11-15T08:08:06;97750.25;;;5.63;100.00
36630;BME280;36256;42.154;23.002;2022-11-15T08:10:33;97747.41;;;5.70;100.00
36630;BME280;36256;42.154;23.002;2022-11-15T08:13:10;97748.06;;;5.81;100.00
36630;BME280;36256;42.154;23.002;2022-11-15T08:15:37;97740.56;;;5.78;100.00
36630;BME280;36256;42.154;23.002;2022-11-15T08:18:15;97739.34;;;5.79;100.00
36630;BME280;36256;42.154;23.002;2022-11-15T08:20:41;97731.47;;;5.74;100.00
36630;BME280;36256;42.154;23.002;2022-11-15T08:23:09;97738.53;;;5.82;100.00
36630;BME280;36256;42.154;23.002;2022-11-15T08:25:36;97742.91;;;5.87;100.00
36630;BME280;36256;42.154;23.002;2022-11-15T08:28:05;97742.88;;;5.83;100.00
36630;BME280;36256;42.154;23.002;2022-11-15T08:30:40;97743.69;;;5.87;100.00
36630;BME280;36256;42.154;23.002;2022-11-15T08:33:12;97741.25;;;5.89;100.00
36630;BME280;36256;42.154;23.002;2022-11-15T08:35:40;97740.03;;;5.94;100.00
36630;BME280;36256;42.154;23.002;2022-11-15T08:38:07;97737.56;;;6.03;100.00
36630;BME280;36256;42.154;23.002;2022-11-15T08:40:35;97719.22;;;6.05;100.00
36630;BME280;36256;42.154;23.002;2022-11-15T08:43:02;97721.84;;;6.23;100.00
36630;BME280;36256;42.154;23.002;2022-11-15T08:45:29;97719.44;;;6.21;100.00
36630;BME280;36256;42.154;23.002;2022-11-15T08:47:56;97721.78;;;6.26;100.00
36630;BME280;36256;42.154;23.002;2022-11-15T08:50:23;97717.34;;;6.32;100.00
36630;BME280;36256;42.154;23.002;2022-11-15T08:52:49;97711.19;;;6.48;100.00
36630;BME280;36256;42.154;23.002;2022-11-15T08:55:16;97711.78;;;6.63;100.00
36630;BME280;36256;42.154;23.002;2022-11-15T08:57:43;97712.91;;;6.69;100.00
36630;BME280;36256;42.154;23.002;2022-11-15T09:00:10;97700.50;;;6.73;100.00
36630;BME280;36256;42.154;23.002;2022-11-15T09:02:38;97698.84;;;6.76;100.00
36630;BME280;36256;42.154;23.002;2022-11-15T09:05:05;97706.91;;;6.97;100.00
36630;BME280;36256;42.154;23.002;2022-11-15T09:07:32;97693.66;;;7.04;100.00
36630;BME280;36256;42.154;23.002;2022-11-15T09:09:59;97683.16;;;7.16;100.00
36630;BME280;36256;42.154;23.002;2022-11-15T09:12:26;97686.88;;;7.32;100.00
36630;BME280;36256;42.154;23.002;2022-11-15T09:14:52;97682.63;;;7.47;100.00
36630;BME280;36256;42.154;23.002;2022-11-15T09:17:19;97674.63;;;7.49;100.00
36630;BME280;36256;42.154;23.002;2022-11-15T09:19:50;97667.69;;;7.57;100.00
36630;BME280;36256;42.154;23.002;2022-11-15T09:22:17;97665.56;;;7.65;100.00
36630;BME280;36256;42.154;23.002;2022-11-15T09:24:44;97667.03;;;7.73;100.00
36630;BME280;36256;42.154;23.002;2022-11-15T09:27:10;97658.06;;;7.81;100.00
36630;BME280;36256;42.154;23.002;2022-11-15T09:29:55;97656.91;;;8.02;100.00
36630;BME280;36256;42.154;23.002;2022-11-15T09:32:21;97640.59;;;8.40;100.00
36630;BME280;36256;42.154;23.002;2022-11-15T09:34:51;97633.94;;;8.69;100.00
36630;BME280;36256;42.154;23.002;2022-11-15T09:37:17;97627.97;;;9.19;99.20
36630;BME280;36256;42.154;23.002;2022-11-15T09:39:44;97627.78;;;9.42;94.90
36630;BME280;36256;42.154;23.002;2022-11-15T09:50:42;97613.00;;;10.03;95.96
36630;BME280;36256;42.154;23.002;2022-11-15T09:53:19;97602.38;;;10.10;95.03
36630;BME280;36256;42.154;23.002;2022-11-15T09:56:30;97597.63;;;10.36;95.90
36630;BME280;36256;42.154;23.002;2022-11-15T10:01:50;97581.97;;;11.01;91.80
36630;BME280;36256;42.154;23.002;2022-11-15T10:04:22;97578.38;;;11.14;89.84
36630;BME280;36256;42.154;23.002;2022-11-15T10:07:02;97580.63;;;11.19;88.12
36630;BME280;36256;42.154;23.002;2022-11-15T10:09:47;97571.53;;;11.02;89.28
36630;BME280;36256;42.154;23.002;2022-11-15T10:12:15;97566.25;;;11.17;89.58
36630;BME280;36256;42.154;23.002;2022-11-15T10:14:43;97554.41;;;11.22;88.93
36630;BME280;36256;42.154;23.002;2022-11-15T10:22:59;97543.75;;;11.76;87.63
36630;BME280;36256;42.154;23.002;2022-11-15T10:25:31;97541.53;;;11.93;86.67
36630;BME280;36256;42.154;23.002;2022-11-15T10:28:15;97525.09;;;11.91;85.58
36630;BME280;36256;42.154;23.002;2022-11-15T10:30:49;97522.63;;;11.93;85.47
36630;BME280;36256;42.154;23.002;2022-11-15T10:33:36;97516.09;;;11.96;85.10
36630;BME280;36256;42.154;23.002;2022-11-15T10:41:16;97486.78;;;12.68;83.21
36630;BME280;36256;42.154;23.002;2022-11-15T10:43:44;97489.91;;;12.70;81.49
36630;BME280;36256;42.154;23.002;2022-11-15T10:46:18;97476.81;;;12.85;83.01
36630;BME280;36256;42.154;23.002;2022-11-15T10:51:49;97469.56;;;12.66;80.81
36630;BME280;36256;42.154;23.002;2022-11-15T10:54:42;97454.06;;;12.61;81.35
36630;BME280;36256;42.154;23.002;2022-11-15T10:57:15;97453.03;;;12.77;81.21
36630;BME280;36256;42.154;23.002;2022-11-15T10:59:48;97453.38;;;12.97;80.83
36630;BME280;36256;42.154;23.002;2022-11-15T11:05:05;97445.03;;;13.24;80.13
36630;BME280;36256;42.154;23.002;2022-11-15T11:07:34;97428.09;;;13.42;79.32
36630;BME280;36256;42.154;23.002;2022-11-15T11:10:17;97422.44;;;13.69;83.90
36630;BME280;36256;42.154;23.002;2022-11-15T11:13:28;97425.38;;;14.02;76.90
36630;BME280;36256;42.154;23.002;2022-11-15T11:18:28;97417.66;;;14.30;75.39
36630;BME280;36256;42.154;23.002;2022-11-15T11:21:04;97406.69;;;14.13;75.09
36630;BME280;36256;42.154;23.002;2022-11-15T11:23:53;97405.75;;;14.07;75.29
36630;BME280;36256;42.154;23.002;2022-11-15T11:26:38;97401.81;;;14.23;75.20
36630;BME280;36256;42.154;23.002;2022-11-15T11:34:58;97375.72;;;14.37;73.71
36630;BME280;36256;42.154;23.002;2022-11-15T11:40:51;97362.56;;;14.67;74.05
36630;BME280;36256;42.154;23.002;2022-11-15T11:51:38;97337.91;;;14.91;70.17
36630;BME280;36256;42.154;23.002;2022-11-15T11:56:54;97334.59;;;15.16;70.64
36630;BME280;36256;42.154;23.002;2022-11-15T12:04:51;97315.22;;;15.38;68.09
36630;BME280;36256;42.154;23.002;2022-11-15T12:07:25;97315.22;;;15.38;67.67
36630;BME280;36256;42.154;23.002;2022-11-15T12:09:58;97309.91;;;15.17;68.62
36630;BME280;36256;42.154;23.002;2022-11-15T12:12:39;97295.13;;;15.36;70.32
36630;BME280;36256;42.154;23.002;2022-11-15T12:17:36;97282.09;;;15.83;65.98
36630;BME280;36256;42.154;23.002;2022-11-15T12:20:06;97274.09;;;15.66;65.83
36630;BME280;36256;42.154;23.002;2022-11-15T12:22:44;97274.09;;;15.66;66.34
36630;BME280;36256;42.154;23.002;2022-11-15T12:25:27;97257.53;;;15.59;66.24
36630;BME280;36256;42.154;23.002;2022-11-15T12:30:50;97256.94;;;15.55;66.07
36630;BME280;36256;42.154;23.002;2022-11-15T12:36:46;97261.78;;;15.69;64.61
36630;BME280;36256;42.154;23.002;2022-11-15T12:41:18;97244.03;;;15.84;64.18
36630;BME280;36256;42.154;23.002;2022-11-15T12:43:47;97233.31;;;15.88;64.01
36630;BME280;36256;42.154;23.002;2022-11-15T12:48:50;97236.59;;;15.86;64.89
36630;BME280;36256;42.154;23.002;2022-11-15T12:51:21;97232.13;;;15.94;63.04
36630;BME280;36256;42.154;23.002;2022-11-15T12:53:48;97227.63;;;15.88;63.13
36630;BME280;36256;42.154;23.002;2022-11-15T12:59:01;97224.28;;;16.04;62.17
36630;BME280;36256;42.154;23.002;2022-11-15T13:04:28;97206.03;;;16.25;61.70
36630;BME280;36256;42.154;23.002;2022-11-15T13:06:57;97211.59;;;16.34;62.07
36630;BME280;36256;42.154;23.002;2022-11-15T13:12:10;97201.50;;;16.33;61.05
36630;BME280;36256;42.154;23.002;2022-11-15T13:14:58;97195.28;;;16.29;61.04
36630;BME280;36256;42.154;23.002;2022-11-15T13:17:36;97198.91;;;16.29;61.95
36630;BME280;36256;42.154;23.002;2022-11-15T13:22:52;97194.50;;;16.28;60.77
36630;BME280;36256;42.154;23.002;2022-11-15T13:28:35;97188.09;;;16.28;61.04
36630;BME280;36256;42.154;23.002;2022-11-15T13:31:26;97172.47;;;16.18;59.96
36630;BME280;36256;42.154;23.002;2022-11-15T13:33:57;97180.97;;;16.18;63.17
36630;BME280;36256;42.154;23.002;2022-11-15T13:36:27;97183.25;;;16.14;62.77
36630;BME280;36256;42.154;23.002;2022-11-15T13:38:56;97179.56;;;16.08;62.34
36630;BME280;36256;42.154;23.002;2022-11-15T13:41:26;97189.75;;;16.00;62.37
36630;BME280;36256;42.154;23.002;2022-11-15T13:43:54;97186.84;;;15.94;63.84
36630;BME280;36256;42.154;23.002;2022-11-15T13:46:31;97194.84;;;15.96;64.25
36630;BME280;36256;42.154;23.002;2022-11-15T13:49:05;97184.63;;;15.84;63.09
36630;BME280;36256;42.154;23.002;2022-11-15T13:51:50;97194.34;;;15.62;63.77
36630;BME280;36256;42.154;23.002;2022-11-15T13:56:56;97185.06;;;15.62;65.05
36630;BME280;36256;42.154;23.002;2022-11-15T13:59:27;97188.69;;;15.62;65.62
36630;BME280;36256;42.154;23.002;2022-11-15T14:01:58;97185.56;;;15.60;65.52
36630;BME280;36256;42.154;23.002;2022-11-15T14:04:27;97188.28;;;15.55;65.16
36630;BME280;36256;42.154;23.002;2022-11-15T14:06:57;97192.19;;;15.43;66.13
36630;BME280;36256;42.154;23.002;2022-11-15T14:09:36;97188.06;;;15.29;67.07
36630;BME280;36256;42.154;23.002;2022-11-15T14:12:22;97189.84;;;15.27;67.83
36630;BME280;36256;42.154;23.002;2022-11-15T14:14:49;97198.63;;;15.14;70.28
36630;BME280;36256;42.154;23.002;2022-11-15T14:19:57;97195.84;;;14.76;71.77
36630;BME280;36256;42.154;23.002;2022-11-15T14:27:44;97203.47;;;14.23;74.81
36630;BME280;36256;42.154;23.002;2022-11-15T14:30:17;97196.63;;;14.14;74.59
36630;BME280;36256;42.154;23.002;2022-11-15T14:32:46;97204.34;;;14.05;74.37
36630;BME280;36256;42.154;23.002;2022-11-15T14:35:17;97205.47;;;13.98;76.18
36630;BME280;36256;42.154;23.002;2022-11-15T14:37:45;97206.97;;;13.85;77.00
36630;BME280;36256;42.154;23.002;2022-11-15T14:40:14;97210.63;;;13.76;76.49
36630;BME280;36256;42.154;23.002;2022-11-15T14:42:42;97217.81;;;13.77;75.58
36630;BME280;36256;42.154;23.002;2022-11-15T14:45:15;97213.66;;;13.64;74.45
36630;BME280;36256;42.154;23.002;2022-11-15T14:47:43;97207.63;;;13.47;77.19
36630;BME280;36256;42.154;23.002;2022-11-15T14:50:18;97206.06;;;13.37;76.56
36630;BME280;36256;42.154;23.002;2022-11-15T14:52:46;97219.25;;;13.31;78.84
36630;BME280;36256;42.154;23.002;2022-11-15T14:55:25;97210.03;;;13.21;80.04
36630;BME280;36256;42.154;23.002;2022-11-15T14:57:54;97206.31;;;13.15;80.58
36630;BME280;36256;42.154;23.002;2022-11-15T15:00:21;97210.19;;;13.18;80.74
36630;BME280;36256;42.154;23.002;2022-11-15T15:02:51;97203.63;;;13.12;80.07
36630;BME280;36256;42.154;23.002;2022-11-15T15:05:29;97197.56;;;13.13;79.30
36630;BME280;36256;42.154;23.002;2022-11-15T15:07:56;97204.41;;;13.03;82.02
36630;BME280;36256;42.154;23.002;2022-11-15T15:10:24;97201.47;;;12.89;81.45
36630;BME280;36256;42.154;23.002;2022-11-15T15:13:31;97198.69;;;12.71;83.06
36630;BME280;36256;42.154;23.002;2022-11-15T15:15:57;97194.31;;;12.60;83.76
36630;BME280;36256;42.154;23.002;2022-11-15T15:18:23;97202.28;;;12.44;85.19